sensor_id;sensor_type;location;lat;lon;timestamp;P1;durP1;ratioP1;P2;durP2;ratioP2
46363;SDS011;32071;49.036;9.344;2022-12-18T00:00:46;26.98;;;10.68;;
46363;SDS011;32071;49.036;9.344;2022-12-18T00:03:16;40.25;;;10.38;;
46363;SDS011;32071;49.036;9.344;2022-12-18T00:05:51;24.08;;;10.93;;
46363;SDS011;32071;49.036;9.344;2022-12-18T00:08:17;19.83;;;8.65;;
46363;SDS011;32071;49.036;9.344;2022-12-18T00:11:03;22.95;;;10.80;;
46363;SDS011;32071;49.036;9.344;2022-12-18T00:13:30;21.95;;;9.00;;
46363;SDS011;32071;49.036;9.344;2022-12-18T00:16:02;20.07;;;8.70;;
46363;SDS011;32071;49.036;9.344;2022-12-18T00:18:48;19.30;;;8.57;;
46363;SDS011;32071;49.036;9.344;2022-12-18T00:21:18;16.55;;;7.45;;
46363;SDS011;32071;49.036;9.344;2022-12-18T00:23:46;21.08;;;8.75;;
46363;SDS011;32071;49.036;9.344;2022-12-18T00:26:14;23.83;;;8.35;;
46363;SDS011;32071;49.036;9.344;2022-12-18T00:29:16;16.52;;;8.70;;
46363;SDS011;32071;49.036;9.344;2022-12-18T00:32:27;14.20;;;7.75;;
46363;SDS011;32071;49.036;9.344;2022-12-18T00:35:10;22.48;;;8.55;;
46363;SDS011;32071;49.036;9.344;2022-12-18T00:37:36;20.93;;;8.73;;
46363;SDS011;32071;49.036;9.344;2022-12-18T00:40:03;26.83;;;9.50;;
46363;SDS011;32071;49.036;9.344;2022-12-18T00:42:36;26.45;;;8.95;;
46363;SDS011;32071;49.036;9.344;2022-12-18T00:45:22;17.33;;;7.75;;
46363;SDS011;32071;49.036;9.344;2022-12-18T00:47:52;21.55;;;7.80;;
46363;SDS011;32071;49.036;9.344;2022-12-18T00:50:18;20.95;;;8.85;;
46363;SDS011;32071;49.036;9.344;2022-12-18T00:52:44;23.97;;;8.97;;
46363;SDS011;32071;49.036;9.344;2022-12-18T00:55:10;16.93;;;7.53;;
46363;SDS011;32071;49.036;9.344;2022-12-18T00:57:37;23.58;;;8.57;;
46363;SDS011;32071;49.036;9.344;2022-12-18T01:00:19;20.52;;;7.68;;
46363;SDS011;32071;49.036;9.344;2022-12-18T01:02:51;22.73;;;9.65;;
46363;SDS011;32071;49.036;9.344;2022-12-18T01:05:21;21.75;;;8.55;;
46363;SDS011;32071;49.036;9.344;2022-12-18T01:07:48;17.60;;;8.02;;
46363;SDS011;32071;49.036;9.344;2022-12-18T01:10:13;24.93;;;9.53;;
46363;SDS011;32071;49.036;9.344;2022-12-18T01:12:40;17.95;;;8.57;;
46363;SDS011;32071;49.036;9.344;2022-12-18T01:15:06;15.98;;;6.30;;
46363;SDS011;32071;49.036;9.344;2022-12-18T01:17:32;18.38;;;7.35;;
46363;SDS011;32071;49.036;9.344;2022-12-18T01:19:59;16.50;;;7.20;;
46363;SDS011;32071;49.036;9.344;2022-12-18T01:22:26;20.42;;;9.52;;
46363;SDS011;32071;49.036;9.344;2022-12-18T01:24:52;25.77;;;9.53;;
46363;SDS011;32071;49.036;9.344;2022-12-18T01:27:20;26.50;;;10.45;;
46363;SDS011;32071;49.036;9.344;2022-12-18T01:29:47;21.83;;;8.80;;
46363;SDS011;32071;49.036;9.344;2022-12-18T01:32:14;21.88;;;9.27;;
46363;SDS011;32071;49.036;9.344;2022-12-18T01:34:40;19.50;;;8.63;;
46363;SDS011;32071;49.036;9.344;2022-12-18T01:37:07;16.73;;;6.73;;
46363;SDS011;32071;49.036;9.344;2022-12-18T01:39:32;21.30;;;8.77;;
46363;SDS011;32071;49.036;9.344;2022-12-18T01:41:59;20.70;;;9.00;;
46363;SDS011;32071;49.036;9.344;2022-12-18T01:47:14;23.00;;;9.05;;
46363;SDS011;32071;49.036;9.344;2022-12-18T01:49:45;19.23;;;8.07;;
46363;SDS011;32071;49.036;9.344;2022-12-18T01:52:10;25.43;;;8.90;;
46363;SDS011;32071;49.036;9.344;2022-12-18T01:54:36;16.93;;;7.50;;
46363;SDS011;32071;49.036;9.344;2022-12-18T01:57:02;21.33;;;9.00;;
46363;SDS011;32071;49.036;9.344;2022-12-18T01:59:27;17.57;;;7.57;;
46363;SDS011;32071;49.036;9.344;2022-12-18T02:01:55;19.25;;;7.32;;
46363;SDS011;32071;49.036;9.344;2022-12-18T02:04:24;19.63;;;9.00;;
46363;SDS011;32071;49.036;9.344;2022-12-18T02:06:53;21.08;;;9.65;;
46363;SDS011;32071;49.036;9.344;2022-12-18T02:09:37;21.55;;;9.95;;
46363;SDS011;32071;49.036;9.344;2022-12-18T02:12:16;28.10;;;12.25;;
46363;SDS011;32071;49.036;9.344;2022-12-18T02:14:49;35.40;;;14.98;;
46363;SDS011;32071;49.036;9.344;2022-12-18T02:17:36;40.70;;;15.40;;
46363;SDS011;32071;49.036;9.344;2022-12-18T02:20:17;41.72;;;15.75;;
46363;SDS011;32071;49.036;9.344;2022-12-18T02:25:35;40.33;;;14.07;;
46363;SDS011;32071;49.036;9.344;2022-12-18T02:28:12;31.25;;;12.10;;
46363;SDS011;32071;49.036;9.344;2022-12-18T02:30:40;29.40;;;12.18;;
46363;SDS011;32071;49.036;9.344;2022-12-18T02:33:07;29.30;;;11.25;;
46363;SDS011;32071;49.036;9.344;2022-12-18T02:35:36;34.03;;;11.98;;
46363;SDS011;32071;49.036;9.344;2022-12-18T02:38:03;32.83;;;11.88;;
46363;SDS011;32071;49.036;9.344;2022-12-18T02:40:29;19.63;;;8.53;;
46363;SDS011;32071;49.036;9.344;2022-12-18T02:43:01;19.70;;;9.88;;
46363;SDS011;32071;49.036;9.344;2022-12-18T02:45:31;25.23;;;10.00;;
46363;SDS011;32071;49.036;9.344;2022-12-18T02:47:57;21.87;;;10.30;;
46363;SDS011;32071;49.036;9.344;2022-12-18T02:50:27;27.40;;;11.07;;
46363;SDS011;32071;49.036;9.344;2022-12-18T02:53:04;33.40;;;11.68;;
46363;SDS011;32071;49.036;9.344;2022-12-18T02:55:39;23.98;;;11.35;;
46363;SDS011;32071;49.036;9.344;2022-12-18T03:01:18;26.33;;;9.80;;
46363;SDS011;32071;49.036;9.344;2022-12-18T03:03:55;22.13;;;10.25;;
46363;SDS011;32071;49.036;9.344;2022-12-18T03:06:28;23.10;;;10.65;;
46363;SDS011;32071;49.036;9.344;2022-12-18T03:08:59;25.48;;;11.63;;
46363;SDS011;32071;49.036;9.344;2022-12-18T03:11:33;22.38;;;12.25;;
46363;SDS011;32071;49.036;9.344;2022-12-18T03:14:21;31.48;;;10.35;;
46363;SDS011;32071;49.036;9.344;2022-12-18T03:16:49;26.83;;;10.60;;
46363;SDS011;32071;49.036;9.344;2022-12-18T03:19:20;34.17;;;12.30;;
46363;SDS011;32071;49.036;9.344;2022-12-18T03:21:49;29.05;;;11.20;;
46363;SDS011;32071;49.036;9.344;2022-12-18T03:24:18;23.55;;;9.45;;
46363;SDS011;32071;49.036;9.344;2022-12-18T03:26:47;23.55;;;11.25;;
46363;SDS011;32071;49.036;9.344;2022-12-18T03:29:18;30.02;;;11.60;;
46363;SDS011;32071;49.036;9.344;2022-12-18T03:32:01;28.38;;;12.55;;
46363;SDS011;32071;49.036;9.344;2022-12-18T03:34:35;27.25;;;12.15;;
46363;SDS011;32071;49.036;9.344;2022-12-18T03:37:05;29.10;;;10.15;;
46363;SDS011;32071;49.036;9.344;2022-12-18T03:39:32;30.58;;;11.77;;
46363;SDS011;32071;49.036;9.344;2022-12-18T03:44:52;22.95;;;12.35;;
46363;SDS011;32071;49.036;9.344;2022-12-18T03:47:28;28.48;;;11.75;;
46363;SDS011;32071;49.036;9.344;2022-12-18T03:50:17;27.85;;;10.50;;
46363;SDS011;32071;49.036;9.344;2022-12-18T03:52:53;25.27;;;11.55;;
46363;SDS011;32071;49.036;9.344;2022-12-18T03:55:46;25.17;;;11.23;;
46363;SDS011;32071;49.036;9.344;2022-12-18T03:58:15;29.75;;;13.25;;
46363;SDS011;32071;49.036;9.344;2022-12-18T04:00:43;29.15;;;13.32;;
46363;SDS011;32071;49.036;9.344;2022-12-18T04:03:11;20.85;;;11.63;;
46363;SDS011;32071;49.036;9.344;2022-12-18T04:05:38;26.30;;;12.32;;
46363;SDS011;32071;49.036;9.344;2022-12-18T04:08:08;27.77;;;11.82;;
46363;SDS011;32071;49.036;9.344;2022-12-18T04:10:36;35.25;;;13.32;;
46363;SDS011;32071;49.036;9.344;2022-12-18T04:13:03;29.02;;;13.23;;
46363;SDS011;32071;49.036;9.344;2022-12-18T04:15:29;38.03;;;15.17;;
46363;SDS011;32071;49.036;9.344;2022-12-18T04:17:59;33.20;;;14.48;;
46363;SDS011;32071;49.036;9.344;2022-12-18T04:20:24;34.58;;;13.93;;
46363;SDS011;32071;49.036;9.344;2022-12-18T04:22:50;39.80;;;13.90;;
46363;SDS011;32071;49.036;9.344;2022-12-18T04:25:16;35.90;;;12.68;;
46363;SDS011;32071;49.036;9.344;2022-12-18T04:27:42;27.13;;;11.50;;
46363;SDS011;32071;49.036;9.344;2022-12-18T04:30:08;30.17;;;13.97;;
46363;SDS011;32071;49.036;9.344;2022-12-18T04:32:35;27.33;;;11.65;;
46363;SDS011;32071;49.036;9.344;2022-12-18T04:35:00;32.00;;;12.00;;
46363;SDS011;32071;49.036;9.344;2022-12-18T04:37:26;32.03;;;14.10;;
46363;SDS011;32071;49.036;9.344;2022-12-18T04:39:52;55.50;;;21.47;;
46363;SDS011;32071;49.036;9.344;2022-12-18T04:42:17;25.60;;;10.27;;
46363;SDS011;32071;49.036;9.344;2022-12-18T04:44:43;27.90;;;9.93;;
46363;SDS011;32071;49.036;9.344;2022-12-18T04:47:09;37.72;;;14.85;;
46363;SDS011;32071;49.036;9.344;2022-12-18T04:49:35;32.83;;;13.33;;
46363;SDS011;32071;49.036;9.344;2022-12-18T04:52:00;34.27;;;13.20;;
46363;SDS011;32071;49.036;9.344;2022-12-18T04:54:27;33.17;;;14.40;;
46363;SDS011;32071;49.036;9.344;2022-12-18T04:56:53;26.10;;;11.60;;
46363;SDS011;32071;49.036;9.344;2022-12-18T04:59:20;35.97;;;12.32;;
46363;SDS011;32071;49.036;9.344;2022-12-18T05:01:47;33.53;;;11.05;;
46363;SDS011;32071;49.036;9.344;2022-12-18T05:04:12;40.73;;;13.40;;
46363;SDS011;32071;49.036;9.344;2022-12-18T05:06:38;30.43;;;12.50;;
46363;SDS011;32071;49.036;9.344;2022-12-18T05:09:03;33.10;;;11.47;;
46363;SDS011;32071;49.036;9.344;2022-12-18T05:11:29;37.33;;;12.53;;
46363;SDS011;32071;49.036;9.344;2022-12-18T05:13:54;35.40;;;13.20;;
46363;SDS011;32071;49.036;9.344;2022-12-18T05:16:20;26.70;;;11.60;;
46363;SDS011;32071;49.036;9.344;2022-12-18T05:18:46;28.00;;;11.90;;
46363;SDS011;32071;49.036;9.344;2022-12-18T05:21:12;23.80;;;11.55;;
46363;SDS011;32071;49.036;9.344;2022-12-18T05:23:38;31.07;;;14.40;;
46363;SDS011;32071;49.036;9.344;2022-12-18T05:26:05;27.60;;;12.82;;
46363;SDS011;32071;49.036;9.344;2022-12-18T05:28:34;31.75;;;14.73;;
46363;SDS011;32071;49.036;9.344;2022-12-18T05:31:01;28.92;;;13.32;;
46363;SDS011;32071;49.036;9.344;2022-12-18T05:33:30;23.55;;;11.95;;
46363;SDS011;32071;49.036;9.344;2022-12-18T05:35:59;37.08;;;14.52;;
46363;SDS011;32071;49.036;9.344;2022-12-18T05:38:26;18.80;;;10.02;;
46363;SDS011;32071;49.036;9.344;2022-12-18T05:40:53;29.63;;;12.68;;
46363;SDS011;32071;49.036;9.344;2022-12-18T05:43:19;23.67;;;12.32;;
46363;SDS011;32071;49.036;9.344;2022-12-18T05:45:49;38.53;;;12.27;;
46363;SDS011;32071;49.036;9.344;2022-12-18T05:48:15;35.03;;;14.55;;
46363;SDS011;32071;49.036;9.344;2022-12-18T05:50:42;30.35;;;14.07;;
46363;SDS011;32071;49.036;9.344;2022-12-18T05:53:11;37.97;;;13.35;;
46363;SDS011;32071;49.036;9.344;2022-12-18T05:55:38;31.98;;;13.38;;
46363;SDS011;32071;49.036;9.344;2022-12-18T05:58:05;35.00;;;14.63;;
46363;SDS011;32071;49.036;9.344;2022-12-18T06:00:32;28.35;;;13.65;;
46363;SDS011;32071;49.036;9.344;2022-12-18T06:02:59;37.13;;;14.55;;
46363;SDS011;32071;49.036;9.344;2022-12-18T06:05:25;31.13;;;12.85;;
46363;SDS011;32071;49.036;9.344;2022-12-18T06:07:51;32.00;;;13.07;;
46363;SDS011;32071;49.036;9.344;2022-12-18T06:10:17;33.03;;;12.63;;
46363;SDS011;32071;49.036;9.344;2022-12-18T06:12:43;32.42;;;13.48;;
46363;SDS011;32071;49.036;9.344;2022-12-18T06:15:09;33.93;;;12.23;;
46363;SDS011;32071;49.036;9.344;2022-12-18T06:17:36;33.13;;;10.35;;
46363;SDS011;32071;49.036;9.344;2022-12-18T06:20:02;25.20;;;11.93;;
46363;SDS011;32071;49.036;9.344;2022-12-18T06:22:31;26.67;;;11.75;;
46363;SDS011;32071;49.036;9.344;2022-12-18T06:24:57;29.35;;;10.48;;
46363;SDS011;32071;49.036;9.344;2022-12-18T06:27:24;29.77;;;12.40;;
46363;SDS011;32071;49.036;9.344;2022-12-18T06:29:51;27.85;;;12.10;;
46363;SDS011;32071;49.036;9.344;2022-12-18T06:32:17;25.50;;;11.33;;
46363;SDS011;32071;49.036;9.344;2022-12-18T06:34:43;33.95;;;12.35;;
46363;SDS011;32071;49.036;9.344;2022-12-18T06:37:09;31.10;;;9.80;;
46363;SDS011;32071;49.036;9.344;2022-12-18T06:39:34;30.70;;;10.53;;
46363;SDS011;32071;49.036;9.344;2022-12-18T06:42:00;26.70;;;10.90;;
46363;SDS011;32071;49.036;9.344;2022-12-18T06:44:26;22.93;;;8.90;;
46363;SDS011;32071;49.036;9.344;2022-12-18T06:46:54;27.65;;;11.50;;
46363;SDS011;32071;49.036;9.344;2022-12-18T06:49:20;23.93;;;9.50;;
46363;SDS011;32071;49.036;9.344;2022-12-18T06:51:46;29.23;;;9.83;;
46363;SDS011;32071;49.036;9.344;2022-12-18T06:54:12;30.97;;;10.93;;
46363;SDS011;32071;49.036;9.344;2022-12-18T06:56:37;29.13;;;11.77;;
46363;SDS011;32071;49.036;9.344;2022-12-18T06:59:03;24.30;;;9.77;;
46363;SDS011;32071;49.036;9.344;2022-12-18T07:01:29;22.87;;;9.73;;
46363;SDS011;32071;49.036;9.344;2022-12-18T07:03:55;19.93;;;8.23;;
46363;SDS011;32071;49.036;9.344;2022-12-18T07:06:23;31.92;;;10.57;;
46363;SDS011;32071;49.036;9.344;2022-12-18T07:08:50;32.42;;;11.38;;
46363;SDS011;32071;49.036;9.344;2022-12-18T07:11:17;32.70;;;10.90;;
46363;SDS011;32071;49.036;9.344;2022-12-18T07:13:44;34.72;;;12.75;;
46363;SDS011;32071;49.036;9.344;2022-12-18T07:16:12;29.88;;;10.70;;
46363;SDS011;32071;49.036;9.344;2022-12-18T07:18:42;41.75;;;16.02;;
46363;SDS011;32071;49.036;9.344;2022-12-18T07:21:11;34.63;;;14.48;;
46363;SDS011;32071;49.036;9.344;2022-12-18T07:23:39;32.92;;;13.05;;
46363;SDS011;32071;49.036;9.344;2022-12-18T07:26:09;35.83;;;12.23;;
46363;SDS011;32071;49.036;9.344;2022-12-18T07:28:36;33.63;;;14.75;;
46363;SDS011;32071;49.036;9.344;2022-12-18T07:31:03;36.00;;;15.15;;
46363;SDS011;32071;49.036;9.344;2022-12-18T07:33:37;35.92;;;14.48;;
46363;SDS011;32071;49.036;9.344;2022-12-18T07:36:03;39.50;;;13.60;;
46363;SDS011;32071;49.036;9.344;2022-12-18T07:38:31;38.70;;;15.35;;
46363;SDS011;32071;49.036;9.344;2022-12-18T07:41:01;29.85;;;12.95;;
46363;SDS011;32071;49.036;9.344;2022-12-18T07:43:28;30.95;;;12.93;;
46363;SDS011;32071;49.036;9.344;2022-12-18T07:45:54;35.27;;;17.07;;
46363;SDS011;32071;49.036;9.344;2022-12-18T07:48:20;39.78;;;16.42;;
46363;SDS011;32071;49.036;9.344;2022-12-18T07:50:46;31.30;;;14.07;;
46363;SDS011;32071;49.036;9.344;2022-12-18T07:53:12;33.97;;;14.57;;
46363;SDS011;32071;49.036;9.344;2022-12-18T07:55:37;35.80;;;15.00;;
46363;SDS011;32071;49.036;9.344;2022-12-18T07:58:03;26.30;;;12.80;;
46363;SDS011;32071;49.036;9.344;2022-12-18T08:00:31;33.92;;;11.90;;
46363;SDS011;32071;49.036;9.344;2022-12-18T08:02:56;29.03;;;12.77;;
46363;SDS011;32071;49.036;9.344;2022-12-18T08:05:22;30.07;;;12.47;;
46363;SDS011;32071;49.036;9.344;2022-12-18T08:07:50;25.55;;;12.15;;
46363;SDS011;32071;49.036;9.344;2022-12-18T08:10:15;34.10;;;13.02;;
46363;SDS011;32071;49.036;9.344;2022-12-18T08:12:41;37.03;;;12.67;;
46363;SDS011;32071;49.036;9.344;2022-12-18T08:15:07;26.83;;;11.90;;
46363;SDS011;32071;49.036;9.344;2022-12-18T08:17:33;35.58;;;13.52;;
46363;SDS011;32071;49.036;9.344;2022-12-18T08:19:59;35.80;;;14.10;;
46363;SDS011;32071;49.036;9.344;2022-12-18T08:22:25;32.00;;;12.30;;
46363;SDS011;32071;49.036;9.344;2022-12-18T08:24:51;29.60;;;12.07;;
46363;SDS011;32071;49.036;9.344;2022-12-18T08:27:16;34.77;;;14.20;;
46363;SDS011;32071;49.036;9.344;2022-12-18T08:29:42;28.50;;;12.27;;
46363;SDS011;32071;49.036;9.344;2022-12-18T08:32:07;35.33;;;13.57;;
46363;SDS011;32071;49.036;9.344;2022-12-18T08:34:33;30.17;;;12.73;;
46363;SDS011;32071;49.036;9.344;2022-12-18T08:36:59;39.63;;;13.50;;
46363;SDS011;32071;49.036;9.344;2022-12-18T08:39:26;42.90;;;13.70;;
46363;SDS011;32071;49.036;9.344;2022-12-18T08:41:52;33.00;;;13.57;;
46363;SDS011;32071;49.036;9.344;2022-12-18T08:44:37;39.30;;;14.32;;
46363;SDS011;32071;49.036;9.344;2022-12-18T08:47:03;38.47;;;15.07;;
46363;SDS011;32071;49.036;9.344;2022-12-18T08:49:29;38.58;;;14.57;;
46363;SDS011;32071;49.036;9.344;2022-12-18T08:51:55;39.83;;;12.37;;
46363;SDS011;32071;49.036;9.344;2022-12-18T08:54:22;37.60;;;13.40;;
46363;SDS011;32071;49.036;9.344;2022-12-18T08:56:48;35.63;;;15.35;;
46363;SDS011;32071;49.036;9.344;2022-12-18T08:59:14;35.85;;;14.00;;
46363;SDS011;32071;49.036;9.344;2022-12-18T09:01:41;44.50;;;14.18;;
46363;SDS011;32071;49.036;9.344;2022-12-18T09:04:07;30.27;;;13.10;;
46363;SDS011;32071;49.036;9.344;2022-12-18T09:06:34;56.67;;;21.55;;
46363;SDS011;32071;49.036;9.344;2022-12-18T09:08:59;98.90;;;33.47;;
46363;SDS011;32071;49.036;9.344;2022-12-18T09:11:26;69.43;;;24.07;;
46363;SDS011;32071;49.036;9.344;2022-12-18T09:13:53;79.22;;;29.85;;
46363;SDS011;32071;49.036;9.344;2022-12-18T09:16:20;49.90;;;19.58;;
46363;SDS011;32071;49.036;9.344;2022-12-18T09:18:46;35.03;;;13.90;;
46363;SDS011;32071;49.036;9.344;2022-12-18T09:21:16;34.40;;;14.53;;
46363;SDS011;32071;49.036;9.344;2022-12-18T09:23:48;37.33;;;14.85;;
46363;SDS011;32071;49.036;9.344;2022-12-18T09:26:15;31.92;;;14.13;;
46363;SDS011;32071;49.036;9.344;2022-12-18T09:28:41;40.77;;;15.40;;
46363;SDS011;32071;49.036;9.344;2022-12-18T09:31:08;39.08;;;15.68;;
46363;SDS011;32071;49.036;9.344;2022-12-18T09:33:39;41.43;;;15.20;;
46363;SDS011;32071;49.036;9.344;2022-12-18T09:36:06;36.67;;;15.60;;
46363;SDS011;32071;49.036;9.344;2022-12-18T09:38:33;43.78;;;17.00;;
46363;SDS011;32071;49.036;9.344;2022-12-18T09:41:13;37.17;;;14.90;;
46363;SDS011;32071;49.036;9.344;2022-12-18T09:43:57;31.02;;;13.57;;
46363;SDS011;32071;49.036;9.344;2022-12-18T09:46:40;41.27;;;17.40;;
46363;SDS011;32071;49.036;9.344;2022-12-18T09:49:12;28.00;;;13.37;;
46363;SDS011;32071;49.036;9.344;2022-12-18T09:51:49;35.35;;;15.60;;
46363;SDS011;32071;49.036;9.344;2022-12-18T09:54:26;34.92;;;14.55;;
46363;SDS011;32071;49.036;9.344;2022-12-18T09:57:02;47.40;;;17.00;;
46363;SDS011;32071;49.036;9.344;2022-12-18T09:59:36;38.40;;;16.13;;
46363;SDS011;32071;49.036;9.344;2022-12-18T10:02:14;35.77;;;15.43;;
46363;SDS011;32071;49.036;9.344;2022-12-18T10:04:40;33.57;;;14.47;;
46363;SDS011;32071;49.036;9.344;2022-12-18T10:07:09;36.10;;;13.67;;
46363;SDS011;32071;49.036;9.344;2022-12-18T10:10:03;28.43;;;12.70;;
46363;SDS011;32071;49.036;9.344;2022-12-18T10:12:32;30.13;;;13.03;;
46363;SDS011;32071;49.036;9.344;2022-12-18T10:21:13;34.20;;;14.20;;
46363;SDS011;32071;49.036;9.344;2022-12-18T10:24:30;31.30;;;13.87;;
46363;SDS011;32071;49.036;9.344;2022-12-18T10:26:48;34.87;;;13.83;;
46363;SDS011;32071;49.036;9.344;2022-12-18T10:29:14;32.83;;;13.23;;
46363;SDS011;32071;49.036;9.344;2022-12-18T10:31:42;37.37;;;14.10;;
46363;SDS011;32071;49.036;9.344;2022-12-18T10:34:14;39.30;;;14.47;;
46363;SDS011;32071;49.036;9.344;2022-12-18T10:36:41;39.90;;;14.87;;
46363;SDS011;32071;49.036;9.344;2022-12-18T10:39:13;32.30;;;13.27;;
46363;SDS011;32071;49.036;9.344;2022-12-18T10:41:47;26.20;;;12.10;;
46363;SDS011;32071;49.036;9.344;2022-12-18T10:46:41;30.67;;;12.90;;
46363;SDS011;32071;49.036;9.344;2022-12-18T10:49:17;35.33;;;14.50;;
46363;SDS011;32071;49.036;9.344;2022-12-18T10:51:48;35.53;;;13.00;;
46363;SDS011;32071;49.036;9.344;2022-12-18T10:54:14;29.93;;;13.87;;
46363;SDS011;32071;49.036;9.344;2022-12-18T10:56:46;37.23;;;13.37;;
46363;SDS011;32071;49.036;9.344;2022-12-18T10:59:13;22.23;;;11.47;;
46363;SDS011;32071;49.036;9.344;2022-12-18T11:04:21;27.50;;;12.47;;
46363;SDS011;32071;49.036;9.344;2022-12-18T11:07:22;33.13;;;13.20;;
46363;SDS011;32071;49.036;9.344;2022-12-18T11:09:40;36.03;;;13.90;;
46363;SDS011;32071;49.036;9.344;2022-12-18T11:12:16;30.30;;;14.70;;
46363;SDS011;32071;49.036;9.344;2022-12-18T11:14:53;39.63;;;14.87;;
46363;SDS011;32071;49.036;9.344;2022-12-18T11:17:33;29.20;;;12.77;;
46363;SDS011;32071;49.036;9.344;2022-12-18T11:20:04;34.97;;;15.50;;
46363;SDS011;32071;49.036;9.344;2022-12-18T11:22:33;32.50;;;13.90;;
46363;SDS011;32071;49.036;9.344;2022-12-18T11:25:02;39.07;;;15.73;;
46363;SDS011;32071;49.036;9.344;2022-12-18T11:27:47;45.97;;;16.40;;
46363;SDS011;32071;49.036;9.344;2022-12-18T11:35:52;34.57;;;14.23;;
46363;SDS011;32071;49.036;9.344;2022-12-18T11:38:29;34.73;;;12.97;;
46363;SDS011;32071;49.036;9.344;2022-12-18T11:46:10;37.50;;;13.70;;
46363;SDS011;32071;49.036;9.344;2022-12-18T11:48:54;30.50;;;14.03;;
46363;SDS011;32071;49.036;9.344;2022-12-18T11:51:32;35.10;;;13.63;;
46363;SDS011;32071;49.036;9.344;2022-12-18T11:54:12;35.77;;;15.00;;
46363;SDS011;32071;49.036;9.344;2022-12-18T11:56:43;31.57;;;14.13;;
46363;SDS011;32071;49.036;9.344;2022-12-18T12:01:46;31.17;;;14.17;;
46363;SDS011;32071;49.036;9.344;2022-12-18T12:09:53;29.17;;;14.90;;
46363;SDS011;32071;49.036;9.344;2022-12-18T12:12:55;29.73;;;14.47;;
46363;SDS011;32071;49.036;9.344;2022-12-18T12:21:15;31.17;;;13.40;;
46363;SDS011;32071;49.036;9.344;2022-12-18T12:26:41;28.60;;;14.20;;
46363;SDS011;32071;49.036;9.344;2022-12-18T12:29:24;39.37;;;16.13;;
46363;SDS011;32071;49.036;9.344;2022-12-18T12:40:11;31.03;;;13.90;;
46363;SDS011;32071;49.036;9.344;2022-12-18T12:42:43;32.50;;;13.40;;
46363;SDS011;32071;49.036;9.344;2022-12-18T12:45:38;29.43;;;15.00;;
46363;SDS011;32071;49.036;9.344;2022-12-18T12:51:26;30.93;;;13.90;;
46363;SDS011;32071;49.036;9.344;2022-12-18T12:53:54;31.30;;;14.13;;
46363;SDS011;32071;49.036;9.344;2022-12-18T12:56:22;31.50;;;14.40;;
46363;SDS011;32071;49.036;9.344;2022-12-18T12:58:58;31.27;;;14.97;;
46363;SDS011;32071;49.036;9.344;2022-12-18T13:02:02;29.60;;;13.97;;
46363;SDS011;32071;49.036;9.344;2022-12-18T13:04:41;36.27;;;14.03;;
46363;SDS011;32071;49.036;9.344;2022-12-18T13:07:45;32.97;;;13.00;;
46363;SDS011;32071;49.036;9.344;2022-12-18T13:10:11;34.30;;;14.03;;
46363;SDS011;32071;49.036;9.344;2022-12-18T13:12:54;29.40;;;13.87;;
46363;SDS011;32071;49.036;9.344;2022-12-18T13:15:47;33.33;;;14.40;;
46363;SDS011;32071;49.036;9.344;2022-12-18T13:18:27;33.30;;;14.57;;
46363;SDS011;32071;49.036;9.344;2022-12-18T13:23:23;28.63;;;14.50;;
46363;SDS011;32071;49.036;9.344;2022-12-18T13:25:53;33.80;;;13.93;;
46363;SDS011;32071;49.036;9.344;2022-12-18T13:28:49;33.60;;;14.13;;
46363;SDS011;32071;49.036;9.344;2022-12-18T13:31:58;38.33;;;14.40;;
46363;SDS011;32071;49.036;9.344;2022-12-18T13:36:52;57.63;;;26.17;;
46363;SDS011;32071;49.036;9.344;2022-12-18T13:41:48;51.73;;;21.43;;
46363;SDS011;32071;49.036;9.344;2022-12-18T13:47:24;37.30;;;17.30;;
46363;SDS011;32071;49.036;9.344;2022-12-18T13:50:09;37.37;;;17.33;;
46363;SDS011;32071;49.036;9.344;2022-12-18T13:52:48;30.57;;;15.63;;
46363;SDS011;32071;49.036;9.344;2022-12-18T13:55:16;34.07;;;16.57;;
46363;SDS011;32071;49.036;9.344;2022-12-18T13:57:43;31.73;;;15.53;;
46363;SDS011;32071;49.036;9.344;2022-12-18T14:00:28;32.97;;;16.30;;
46363;SDS011;32071;49.036;9.344;2022-12-18T14:02:55;34.07;;;13.80;;
46363;SDS011;32071;49.036;9.344;2022-12-18T14:05:22;33.00;;;14.83;;
46363;SDS011;32071;49.036;9.344;2022-12-18T14:07:53;34.10;;;14.63;;
46363;SDS011;32071;49.036;9.344;2022-12-18T14:10:19;35.03;;;14.67;;
46363;SDS011;32071;49.036;9.344;2022-12-18T14:12:47;43.43;;;23.07;;
46363;SDS011;32071;49.036;9.344;2022-12-18T14:15:33;34.97;;;16.40;;
46363;SDS011;32071;49.036;9.344;2022-12-18T14:18:18;36.57;;;16.30;;
46363;SDS011;32071;49.036;9.344;2022-12-18T14:20:48;32.83;;;14.30;;
46363;SDS011;32071;49.036;9.344;2022-12-18T14:25:58;29.33;;;13.53;;
46363;SDS011;32071;49.036;9.344;2022-12-18T14:28:24;36.20;;;14.87;;
46363;SDS011;32071;49.036;9.344;2022-12-18T14:30:51;30.93;;;13.97;;
46363;SDS011;32071;49.036;9.344;2022-12-18T14:33:19;30.10;;;16.33;;
46363;SDS011;32071;49.036;9.344;2022-12-18T14:35:56;33.10;;;15.27;;
46363;SDS011;32071;49.036;9.344;2022-12-18T14:38:33;37.30;;;15.87;;
46363;SDS011;32071;49.036;9.344;2022-12-18T14:41:05;28.00;;;14.70;;
46363;SDS011;32071;49.036;9.344;2022-12-18T14:43:34;33.47;;;16.30;;
46363;SDS011;32071;49.036;9.344;2022-12-18T14:46:02;27.23;;;13.73;;
46363;SDS011;32071;49.036;9.344;2022-12-18T14:51:20;33.07;;;14.33;;
46363;SDS011;32071;49.036;9.344;2022-12-18T14:53:53;33.83;;;14.50;;
46363;SDS011;32071;49.036;9.344;2022-12-18T14:56:31;27.20;;;12.87;;
46363;SDS011;32071;49.036;9.344;2022-12-18T14:59:03;42.63;;;18.40;;
46363;SDS011;32071;49.036;9.344;2022-12-18T15:01:32;41.00;;;15.77;;
46363;SDS011;32071;49.036;9.344;2022-12-18T15:04:01;38.00;;;16.73;;
46363;SDS011;32071;49.036;9.344;2022-12-18T15:06:29;33.30;;;13.90;;
46363;SDS011;32071;49.036;9.344;2022-12-18T15:08:57;37.83;;;16.57;;
46363;SDS011;32071;49.036;9.344;2022-12-18T15:11:25;39.17;;;16.40;;
46363;SDS011;32071;49.036;9.344;2022-12-18T15:13:59;27.03;;;15.07;;
46363;SDS011;32071;49.036;9.344;2022-12-18T15:16:49;35.13;;;15.97;;
46363;SDS011;32071;49.036;9.344;2022-12-18T15:19:19;29.63;;;13.77;;
46363;SDS011;32071;49.036;9.344;2022-12-18T15:21:47;49.97;;;25.87;;
46363;SDS011;32071;49.036;9.344;2022-12-18T15:24:21;36.43;;;16.10;;
46363;SDS011;32071;49.036;9.344;2022-12-18T15:26:52;39.53;;;17.43;;
46363;SDS011;32071;49.036;9.344;2022-12-18T15:29:21;36.80;;;17.17;;
46363;SDS011;32071;49.036;9.344;2022-12-18T15:32:01;36.53;;;15.20;;
46363;SDS011;32071;49.036;9.344;2022-12-18T15:34:28;31.33;;;13.97;;
46363;SDS011;32071;49.036;9.344;2022-12-18T15:36:54;36.90;;;14.90;;
46363;SDS011;32071;49.036;9.344;2022-12-18T15:39:20;34.70;;;15.40;;
46363;SDS011;32071;49.036;9.344;2022-12-18T15:41:46;31.57;;;15.30;;
46363;SDS011;32071;49.036;9.344;2022-12-18T15:44:31;33.37;;;14.70;;
46363;SDS011;32071;49.036;9.344;2022-12-18T15:46:56;40.40;;;17.63;;
46363;SDS011;32071;49.036;9.344;2022-12-18T15:49:23;39.33;;;15.87;;
46363;SDS011;32071;49.036;9.344;2022-12-18T15:51:50;46.23;;;17.20;;
46363;SDS011;32071;49.036;9.344;2022-12-18T15:54:18;37.27;;;16.50;;
46363;SDS011;32071;49.036;9.344;2022-12-18T15:57:04;34.87;;;15.77;;
46363;SDS011;32071;49.036;9.344;2022-12-18T15:59:47;30.63;;;14.07;;
46363;SDS011;32071;49.036;9.344;2022-12-18T16:02:14;30.73;;;14.80;;